Cabernet Sauvignon Commodore — WDB3227 — position and weather

sailwx.info

Track history (hours):
 
Tides and Currents Weather Stations Pressure Air Temp Water Temp Dewpoint Dewpoint Depression Visibility Wind Speed Wind Dir Waves Ship Positions

Cabernet Sauvignon Commodore

Owner: Commodore Dining Cruises, INC., Alameda, CA. More information available from US FCC via Universal Licensing System and Coast Guard Vessel Documentation Center.

Last reported at 2018-Jul-15 07:15 UTC. Time now 2018-Jul-17 14:51 UTC.
Position N 37°48' W 122°17'.

Length 30 m; draft 2 m.

Type: Passenger vessel. MMSI: 366884810.

Date/timePositionNaut miles runAvg speedWind from/ knotsBaromVisibWave heightAir tempDewpointWater temp
2018-Jul-15 07:15N 37°48' W 122°17'1 4.6
2018-Jul-15 07:00N 37°48' W 122°18'4 7.9
2018-Jul-15 06:30N 37°48' W 122°23'0 1.0
2018-Jul-15 06:00N 37°48' W 122°24'0 0.0
2018-Jul-15 05:30N 37°48' W 122°24'0 0.1
2018-Jul-15 05:00N 37°48' W 122°24'0 0.9
2018-Jul-15 04:30N 37°48' W 122°24'1 2.4
2018-Jul-15 04:00N 37°47' W 122°23'2 4.3
2018-Jul-15 03:30N 37°49' W 122°25'1 2.0
2018-Jul-15 03:00N 37°48' W 122°24'2 3.7
2018-Jul-15 02:30N 37°47' W 122°23'1 2.1
2018-Jul-15 02:00N 37°48' W 122°23'0 0.5
2018-Jul-15 01:30N 37°48' W 122°24'2 4.3
2018-Jul-15 01:00N 37°48' W 122°21'3 6.7
2018-Jul-15 00:30N 37°47' W 122°17'0 0.0
2018-Jul-15 00:00N 37°47' W 122°17'  
Track history (hours):
 
Tides and Currents Weather Stations Pressure Air Temp Water Temp Dewpoint Dewpoint Depression Visibility Wind Speed Wind Dir Waves Ship Positions

Cabernet Sauvignon Commodore

Owner: Commodore Dining Cruises, INC., Alameda, CA. More information available from US FCC via Universal Licensing System and Coast Guard Vessel Documentation Center.

Last reported at 2018-Jul-15 07:15 UTC. Time now 2018-Jul-17 14:51 UTC.
Position N 37°48' W 122°17'.

Length 30 m; draft 2 m.

Type: Passenger vessel. MMSI: 366884810.

Date/timePositionNaut miles runAvg speedWind from/ knotsBaromVisibWave heightAir tempDewpointWater temp
2018-Jul-15 07:15N 37°48' W 122°17'1 4.6
2018-Jul-15 07:00N 37°48' W 122°18'4 7.9
2018-Jul-15 06:30N 37°48' W 122°23'0 1.0
2018-Jul-15 06:00N 37°48' W 122°24'0 0.0
2018-Jul-15 05:30N 37°48' W 122°24'0 0.1
2018-Jul-15 05:00N 37°48' W 122°24'0 0.9
2018-Jul-15 04:30N 37°48' W 122°24'1 2.4
2018-Jul-15 04:00N 37°47' W 122°23'2 4.3
2018-Jul-15 03:30N 37°49' W 122°25'1 2.0
2018-Jul-15 03:00N 37°48' W 122°24'2 3.7
2018-Jul-15 02:30N 37°47' W 122°23'1 2.1
2018-Jul-15 02:00N 37°48' W 122°23'0 0.5
2018-Jul-15 01:30N 37°48' W 122°24'2 4.3
2018-Jul-15 01:00N 37°48' W 122°21'3 6.7
2018-Jul-15 00:30N 37°47' W 122°17'0 0.0
2018-Jul-15 00:00N 37°47' W 122°17'  

Dump ship's entire track history